createdAt,value
2023-05-21T00:00:04.597Z,25.00
2023-05-21T00:01:04.609Z,25.00
2023-05-21T00:02:04.661Z,0.00
2023-05-21T00:03:04.757Z,0.00
2023-05-21T00:04:04.778Z,0.00
2023-05-21T00:05:04.751Z,0.00
2023-05-21T00:06:04.817Z,0.00
2023-05-21T00:07:04.796Z,0.00
2023-05-21T00:08:04.804Z,4.96
2023-05-21T00:09:04.821Z,21.32
2023-05-21T00:10:04.828Z,24.93
2023-05-21T00:11:04.833Z,25.00
2023-05-21T00:12:05.042Z,25.00
2023-05-21T00:13:04.861Z,25.00
2023-05-21T00:14:04.899Z,25.00
2023-05-21T00:15:04.891Z,27.99
2023-05-21T00:16:04.910Z,25.76
2023-05-21T00:17:04.907Z,19.41
2023-05-21T00:18:04.967Z,24.65
2023-05-21T00:19:04.972Z,27.56
2023-05-21T00:20:04.974Z,27.49
2023-05-21T00:21:04.928Z,27.97
2023-05-21T00:22:04.969Z,25.00
2023-05-21T00:23:04.946Z,27.66
2023-05-21T00:24:04.970Z,25.48
2023-05-21T00:25:04.982Z,25.69
2023-05-21T00:26:04.961Z,26.88
2023-05-21T00:27:04.968Z,20.67
2023-05-21T00:28:04.999Z,25.00
2023-05-21T00:29:04.986Z,27.66
2023-05-21T00:30:04.990Z,27.11
2023-05-21T00:31:05.002Z,22.79
2023-05-21T00:32:05.160Z,29.79
2023-05-21T00:33:05.037Z,29.01
2023-05-21T00:34:05.019Z,28.27
2023-05-21T00:35:05.034Z,28.77
2023-05-21T00:36:05.051Z,27.56
2023-05-21T00:37:05.122Z,25.90
2023-05-21T00:38:05.090Z,26.76
2023-05-21T00:39:05.099Z,25.71
2023-05-21T00:40:05.101Z,25.92
2023-05-21T00:41:05.941Z,26.86
2023-05-21T00:42:05.161Z,25.74
2023-05-21T00:43:05.146Z,26.59
2023-05-21T00:44:05.147Z,25.67
2023-05-21T00:45:05.133Z,25.29
2023-05-21T00:46:05.162Z,30.41
2023-05-21T00:47:05.177Z,30.14
2023-05-21T00:48:05.203Z,29.66
2023-05-21T00:49:05.178Z,29.38
2023-05-21T00:50:05.187Z,30.36
2023-05-21T00:51:05.261Z,28.11
2023-05-21T00:52:05.210Z,29.04
2023-05-21T00:53:05.240Z,31.78
2023-05-21T00:54:05.255Z,28.92
2023-05-21T00:55:05.240Z,29.40
2023-05-21T00:56:05.255Z,25.62
2023-05-21T00:57:05.265Z,27.71
2023-05-21T00:58:05.927Z,29.35
2023-05-21T00:59:05.301Z,28.48
2023-05-21T01:00:05.341Z,28.40
2023-05-21T01:01:05.376Z,29.56
2023-05-21T01:02:05.363Z,28.37
2023-05-21T01:03:05.477Z,27.06
2023-05-21T01:04:05.358Z,26.48
2023-05-21T01:05:05.362Z,28.59
2023-05-21T01:06:05.377Z,28.98
2023-05-21T01:07:05.384Z,28.34
2023-05-21T01:08:05.401Z,28.75
2023-05-21T01:09:05.602Z,28.74
2023-05-21T01:10:05.508Z,28.30
2023-05-21T01:11:05.464Z,26.98
2023-05-21T01:12:05.452Z,28.13
2023-05-21T01:13:05.467Z,28.31
2023-05-21T01:14:05.487Z,27.80
2023-05-21T01:15:05.491Z,29.66
2023-05-21T01:16:05.550Z,26.94
2023-05-21T01:17:05.682Z,27.78
2023-05-21T01:18:05.568Z,30.69
2023-05-21T01:19:05.673Z,28.70
2023-05-21T01:20:06.817Z,27.72
2023-05-21T01:21:05.554Z,32.39
2023-05-21T01:22:05.569Z,31.59
2023-05-21T01:23:05.547Z,30.40
2023-05-21T01:24:05.552Z,28.91
2023-05-21T01:25:05.546Z,27.46
2023-05-21T01:26:05.733Z,26.87
2023-05-21T01:27:05.512Z,28.00
2023-05-21T01:28:05.498Z,28.36
2023-05-21T01:29:05.495Z,28.53
2023-05-21T01:30:05.509Z,29.65
2023-05-21T01:31:05.479Z,28.29
2023-05-21T01:32:05.509Z,27.96
2023-05-21T01:33:05.516Z,29.45
2023-05-21T01:34:05.509Z,28.13
2023-05-21T01:35:05.452Z,27.00
2023-05-21T01:36:05.453Z,25.31
2023-05-21T01:37:05.433Z,26.70
2023-05-21T01:38:05.424Z,28.98
2023-05-21T01:39:05.427Z,28.80
2023-05-21T01:40:05.427Z,28.37
2023-05-21T01:41:05.405Z,27.15
2023-05-21T01:42:05.398Z,25.90
2023-05-21T01:43:05.392Z,28.97
2023-05-21T01:44:05.382Z,30.36
2023-05-21T01:45:05.396Z,30.28
2023-05-21T01:46:05.982Z,29.40
2023-05-21T01:47:05.367Z,25.61
2023-05-21T01:48:05.432Z,28.51
2023-05-21T01:49:05.343Z,28.39
2023-05-21T01:50:05.335Z,27.01
2023-05-21T01:51:05.385Z,27.63
2023-05-21T01:52:05.330Z,27.63
2023-05-21T01:53:05.326Z,28.10
2023-05-21T01:54:05.302Z,27.93
2023-05-21T01:55:05.291Z,27.81
2023-05-21T01:56:05.290Z,25.62
2023-05-21T01:57:05.275Z,29.76
2023-05-21T01:58:05.271Z,27.25
2023-05-21T01:59:05.256Z,26.81
2023-05-21T02:00:05.273Z,27.53
2023-05-21T02:01:05.250Z,27.58
2023-05-21T02:02:06.988Z,27.58
2023-05-21T02:03:05.307Z,29.83
2023-05-21T02:04:05.378Z,32.03
2023-05-21T02:05:05.221Z,30.41
2023-05-21T02:06:05.210Z,28.68
2023-05-21T02:07:05.209Z,27.74
2023-05-21T02:08:05.187Z,29.69
2023-05-21T02:09:05.198Z,27.01
2023-05-21T02:10:05.174Z,27.84
2023-05-21T02:11:05.172Z,27.41
2023-05-21T02:12:05.167Z,27.11
2023-05-21T02:13:05.163Z,28.49
2023-05-21T02:14:05.151Z,30.32
2023-05-21T02:15:05.139Z,28.02
2023-05-21T02:16:05.171Z,27.02
2023-05-21T02:17:05.117Z,28.19
2023-05-21T02:18:05.154Z,30.49
2023-05-21T02:19:05.146Z,28.23
2023-05-21T02:20:05.122Z,29.14
2023-05-21T02:21:05.093Z,29.08
2023-05-21T02:22:05.134Z,30.87
2023-05-21T02:23:05.079Z,27.70
2023-05-21T02:24:05.064Z,26.19
2023-05-21T02:25:05.067Z,26.67
2023-05-21T02:26:05.054Z,27.84
2023-05-21T02:27:05.048Z,27.74
2023-05-21T02:28:05.044Z,28.15
2023-05-21T02:29:05.039Z,27.78
2023-05-21T02:30:05.026Z,27.72
2023-05-21T02:31:05.025Z,27.11
2023-05-21T02:32:05.015Z,28.47
2023-05-21T02:33:05.065Z,28.43
2023-05-21T02:34:05.017Z,27.68
2023-05-21T02:35:04.986Z,26.84
2023-05-21T02:36:05.021Z,28.36
2023-05-21T02:37:04.978Z,28.98
2023-05-21T02:38:04.992Z,29.59
2023-05-21T02:39:04.950Z,27.61
2023-05-21T02:40:04.948Z,29.15
2023-05-21T02:41:04.943Z,28.35
2023-05-21T02:42:04.944Z,26.83
2023-05-21T02:43:04.926Z,28.12
2023-05-21T02:44:04.949Z,27.87
2023-05-21T02:45:04.908Z,28.92
2023-05-21T02:46:04.965Z,27.75
2023-05-21T02:47:04.897Z,28.19
2023-05-21T02:48:04.930Z,27.75
2023-05-21T02:49:04.883Z,26.86
2023-05-21T02:50:04.871Z,27.91
2023-05-21T02:51:04.871Z,27.55
2023-05-21T02:52:04.885Z,27.58
2023-05-21T02:53:04.843Z,30.33
2023-05-21T02:54:04.838Z,28.39
2023-05-21T02:55:04.853Z,29.41
2023-05-21T02:56:04.834Z,26.91
2023-05-21T02:57:04.843Z,26.41
2023-05-21T02:58:04.809Z,28.86
2023-05-21T02:59:04.808Z,30.23
2023-05-21T03:00:04.792Z,29.36
2023-05-21T03:01:04.822Z,29.63
2023-05-21T03:02:04.797Z,26.74
2023-05-21T03:03:04.962Z,30.17
2023-05-21T03:04:04.777Z,26.51
2023-05-21T03:05:04.801Z,27.90
2023-05-21T03:06:04.820Z,28.11
2023-05-21T03:07:04.823Z,27.96
2023-05-21T03:08:04.866Z,28.54
2023-05-21T03:09:04.840Z,27.18
2023-05-21T03:10:04.862Z,28.13
2023-05-21T03:11:04.893Z,27.24
2023-05-21T03:12:04.893Z,28.00
2023-05-21T03:13:06.042Z,26.49
2023-05-21T03:14:04.885Z,27.59
2023-05-21T03:15:04.877Z,31.91
2023-05-21T03:16:04.868Z,29.64
2023-05-21T03:17:04.892Z,27.45
2023-05-21T03:18:04.913Z,25.23
2023-05-21T03:19:04.902Z,28.36
2023-05-21T03:20:04.851Z,27.73
2023-05-21T03:21:04.826Z,29.13
2023-05-21T03:22:04.827Z,26.63
2023-05-21T03:23:04.813Z,28.40
2023-05-21T03:24:04.856Z,26.41
2023-05-21T03:25:04.813Z,27.75
2023-05-21T03:26:04.795Z,27.42
2023-05-21T03:27:04.789Z,26.89
2023-05-21T03:28:04.775Z,26.74
2023-05-21T03:29:04.774Z,28.07
2023-05-21T03:30:06.758Z,29.80
2023-05-21T03:31:04.747Z,29.91
2023-05-21T03:32:04.848Z,30.26
2023-05-21T03:33:04.810Z,30.74
2023-05-21T03:34:04.721Z,27.82
2023-05-21T03:35:04.725Z,29.79
2023-05-21T03:36:04.714Z,28.75
2023-05-21T03:37:04.694Z,31.36
2023-05-21T03:38:04.689Z,26.72
2023-05-21T03:39:04.679Z,28.97
2023-05-21T03:40:04.740Z,29.93
2023-05-21T03:41:04.702Z,30.11
2023-05-21T03:42:04.663Z,28.93
2023-05-21T03:43:04.655Z,26.77
2023-05-21T03:44:04.649Z,28.93
2023-05-21T03:45:04.631Z,26.31
2023-05-21T03:46:04.629Z,29.11
2023-05-21T03:47:04.616Z,27.48
2023-05-21T03:48:04.650Z,29.36
2023-05-21T03:49:04.611Z,25.55
2023-05-21T03:50:04.623Z,25.29
2023-05-21T03:51:04.612Z,25.00
2023-05-21T03:52:04.586Z,28.43
2023-05-21T03:53:04.559Z,28.27
2023-05-21T03:54:04.558Z,29.35
2023-05-21T03:55:04.558Z,32.32
2023-05-21T03:56:04.559Z,29.25
2023-05-21T03:57:04.553Z,27.47
2023-05-21T03:58:04.520Z,29.15
2023-05-21T03:59:04.513Z,28.71
2023-05-21T04:00:04.510Z,28.03
2023-05-21T04:01:04.510Z,27.51
2023-05-21T04:02:04.509Z,26.76
2023-05-21T04:03:04.548Z,29.81
2023-05-21T04:04:04.520Z,29.99
2023-05-21T04:05:04.545Z,28.42
2023-05-21T04:06:04.481Z,28.22
2023-05-21T04:07:04.460Z,29.69
2023-05-21T04:08:04.448Z,28.71
2023-05-21T04:09:04.433Z,26.58
2023-05-21T04:10:04.432Z,28.72
2023-05-21T04:11:04.424Z,27.95
2023-05-21T04:12:04.436Z,27.72
2023-05-21T04:13:04.420Z,28.08
2023-05-21T04:14:04.400Z,27.87
2023-05-21T04:15:04.391Z,27.99
2023-05-21T04:16:04.418Z,27.62
2023-05-21T04:17:04.382Z,25.93
2023-05-21T04:18:04.409Z,27.45
2023-05-21T04:19:04.365Z,25.85
2023-05-21T04:20:04.351Z,26.14
2023-05-21T04:21:04.347Z,27.40
2023-05-21T04:22:04.334Z,26.78
2023-05-21T04:23:04.335Z,25.35
2023-05-21T04:24:04.359Z,26.09
2023-05-21T04:25:04.327Z,26.32
2023-05-21T04:26:04.328Z,26.17
2023-05-21T04:27:04.315Z,26.28
2023-05-21T04:28:04.345Z,28.28
2023-05-21T04:29:04.292Z,26.54
2023-05-21T04:30:04.326Z,25.58
2023-05-21T04:31:04.342Z,25.82
2023-05-21T04:32:04.328Z,29.82
2023-05-21T04:33:04.359Z,27.70
2023-05-21T04:34:04.358Z,26.83
2023-05-21T04:35:04.370Z,28.81
2023-05-21T04:36:04.394Z,30.62
2023-05-21T04:37:04.403Z,28.23
2023-05-21T04:38:04.508Z,27.62
2023-05-21T04:39:04.425Z,27.93
2023-05-21T04:40:04.461Z,27.37
2023-05-21T04:41:04.469Z,28.37
2023-05-21T04:42:04.484Z,27.13
2023-05-21T04:43:04.508Z,28.48
2023-05-21T04:44:04.530Z,26.14
2023-05-21T04:45:04.523Z,26.05
2023-05-21T04:46:04.538Z,27.70
2023-05-21T04:47:04.585Z,26.47
2023-05-21T04:48:04.593Z,27.31
2023-05-21T04:49:04.587Z,27.88
2023-05-21T04:50:04.603Z,26.08
2023-05-21T04:51:04.621Z,26.45
2023-05-21T04:52:04.652Z,27.69
2023-05-21T04:53:04.648Z,26.59
2023-05-21T04:54:04.674Z,26.88
2023-05-21T04:55:04.692Z,27.27
2023-05-21T04:56:04.705Z,28.71
2023-05-21T04:57:04.738Z,26.94
2023-05-21T04:58:04.744Z,27.00
2023-05-21T04:59:05.590Z,28.67
2023-05-21T05:00:04.813Z,27.95
2023-05-21T05:01:04.802Z,31.15
2023-05-21T05:02:04.812Z,29.45
2023-05-21T05:03:04.894Z,28.04
2023-05-21T05:04:04.993Z,30.04
2023-05-21T05:05:04.893Z,28.19
2023-05-21T05:06:05.029Z,27.17
2023-05-21T05:07:04.889Z,28.28
2023-05-21T05:08:04.903Z,28.05
2023-05-21T05:09:04.917Z,26.84
2023-05-21T05:10:04.943Z,27.70
2023-05-21T05:11:04.952Z,28.99
2023-05-21T05:12:04.972Z,29.40
2023-05-21T05:13:04.992Z,26.58
2023-05-21T05:14:04.999Z,27.53
2023-05-21T05:15:05.568Z,26.29
2023-05-21T05:16:05.090Z,30.25
2023-05-21T05:17:05.045Z,26.53
2023-05-21T05:18:05.108Z,28.43
2023-05-21T05:19:05.135Z,29.10
2023-05-21T05:20:05.095Z,27.32
2023-05-21T05:21:05.113Z,30.20
2023-05-21T05:22:05.129Z,27.90
2023-05-21T05:23:05.142Z,28.54
2023-05-21T05:24:05.155Z,29.57
2023-05-21T05:25:05.206Z,26.84
2023-05-21T05:26:05.180Z,29.00
2023-05-21T05:27:05.196Z,27.14
2023-05-21T05:28:05.216Z,27.52
2023-05-21T05:29:05.238Z,28.34
2023-05-21T05:30:05.235Z,25.81
2023-05-21T05:31:05.281Z,25.53
2023-05-21T05:32:05.343Z,25.10
2023-05-21T05:33:05.301Z,25.71
2023-05-21T05:34:05.323Z,27.49
2023-05-21T05:35:05.307Z,25.50
2023-05-21T05:36:05.327Z,27.77
2023-05-21T05:37:05.331Z,26.72
2023-05-21T05:38:05.342Z,27.18
2023-05-21T05:39:05.352Z,26.79
2023-05-21T05:40:05.365Z,26.53
2023-05-21T05:41:05.391Z,25.90
2023-05-21T05:42:05.393Z,28.89
2023-05-21T05:43:05.408Z,26.71
2023-05-21T05:44:05.419Z,27.88
2023-05-21T05:45:05.417Z,25.94
2023-05-21T05:46:05.461Z,28.21
2023-05-21T05:47:05.457Z,27.78
2023-05-21T05:48:05.557Z,26.18
2023-05-21T05:49:05.512Z,25.71
2023-05-21T05:50:05.496Z,29.39
2023-05-21T05:51:05.503Z,29.13
2023-05-21T05:52:05.520Z,26.53
2023-05-21T05:53:05.552Z,28.32
2023-05-21T05:54:05.556Z,29.41
2023-05-21T05:55:05.566Z,27.91
2023-05-21T05:56:05.577Z,29.65
2023-05-21T05:57:05.597Z,27.72
2023-05-21T05:58:05.587Z,30.09
2023-05-21T05:59:05.612Z,28.69
2023-05-21T06:00:05.628Z,28.56
2023-05-21T06:01:05.625Z,28.33
2023-05-21T06:02:05.655Z,27.06
2023-05-21T06:03:05.720Z,29.86
2023-05-21T06:04:05.697Z,30.27
2023-05-21T06:05:05.677Z,29.27
2023-05-21T06:06:05.750Z,30.75
2023-05-21T06:07:05.707Z,28.78
2023-05-21T06:08:05.716Z,31.65
2023-05-21T06:09:05.729Z,31.28
2023-05-21T06:10:05.747Z,30.75
2023-05-21T06:11:05.752Z,27.07
2023-05-21T06:12:05.775Z,32.69
2023-05-21T06:13:05.782Z,29.08
2023-05-21T06:14:05.826Z,29.96
2023-05-21T06:15:05.817Z,30.67
2023-05-21T06:16:05.844Z,29.08
2023-05-21T06:17:05.841Z,30.54
2023-05-21T06:18:05.889Z,31.93
2023-05-21T06:19:05.929Z,31.38
2023-05-21T06:20:05.890Z,31.36
2023-05-21T06:21:05.874Z,28.84
2023-05-21T06:22:05.884Z,28.86
2023-05-21T06:23:05.904Z,30.50
2023-05-21T06:24:05.915Z,30.01
2023-05-21T06:25:05.936Z,30.15
2023-05-21T06:26:05.951Z,28.90
2023-05-21T06:27:05.953Z,30.51
2023-05-21T06:28:05.961Z,25.97
2023-05-21T06:29:06.007Z,31.35
2023-05-21T06:30:05.986Z,31.53
2023-05-21T06:31:06.009Z,34.70
2023-05-21T06:32:06.027Z,32.97
2023-05-21T06:33:06.156Z,31.47
2023-05-21T06:34:06.110Z,29.79
2023-05-21T06:35:06.068Z,30.31
2023-05-21T06:36:06.113Z,30.70
2023-05-21T06:37:06.094Z,32.99
2023-05-21T06:38:06.123Z,32.03
2023-05-21T06:39:06.118Z,32.14
2023-05-21T06:40:06.138Z,34.04
2023-05-21T06:41:06.150Z,30.73
2023-05-21T06:42:06.195Z,31.58
2023-05-21T06:43:06.194Z,33.71
2023-05-21T06:44:06.247Z,33.75
2023-05-21T06:45:06.216Z,33.57
2023-05-21T06:46:06.255Z,33.02
2023-05-21T06:47:06.248Z,31.88
2023-05-21T06:48:06.302Z,31.54
2023-05-21T06:49:06.270Z,33.76
2023-05-21T06:50:06.294Z,34.43
2023-05-21T06:51:06.308Z,35.45
2023-05-21T06:52:06.338Z,34.95
2023-05-21T06:53:06.331Z,35.65
2023-05-21T06:54:06.354Z,34.00
2023-05-21T06:55:06.370Z,33.68
2023-05-21T06:56:06.381Z,33.03
2023-05-21T06:57:06.389Z,34.56
2023-05-21T06:58:06.418Z,32.23
2023-05-21T06:59:06.419Z,33.81
2023-05-21T07:00:06.430Z,29.31
2023-05-21T07:01:06.461Z,36.92
2023-05-21T07:02:06.495Z,34.42
2023-05-21T07:03:06.729Z,37.00
2023-05-21T07:04:06.476Z,35.27
2023-05-21T07:05:06.480Z,34.21
2023-05-21T07:06:06.502Z,36.02
2023-05-21T07:07:06.511Z,33.21
2023-05-21T07:08:06.551Z,34.24
2023-05-21T07:09:06.531Z,35.73
2023-05-21T07:10:06.555Z,35.11
2023-05-21T07:11:06.569Z,35.12
2023-05-21T07:12:06.613Z,35.85
2023-05-21T07:13:06.604Z,38.70
2023-05-21T07:14:06.600Z,37.55
2023-05-21T07:15:06.617Z,33.31
2023-05-21T07:16:06.634Z,31.35
2023-05-21T07:17:06.709Z,35.85
2023-05-21T07:18:06.697Z,32.74
2023-05-21T07:19:06.693Z,34.33
2023-05-21T07:20:06.679Z,34.52
2023-05-21T07:21:06.690Z,37.47
2023-05-21T07:22:06.740Z,34.84
2023-05-21T07:23:06.711Z,39.09
2023-05-21T07:24:06.755Z,37.22
2023-05-21T07:25:06.737Z,36.12
2023-05-21T07:26:06.740Z,34.71
2023-05-21T07:27:17.699Z,38.94
2023-05-21T07:28:06.965Z,39.17
2023-05-21T07:29:06.741Z,36.47
2023-05-21T07:30:06.738Z,37.68
2023-05-21T07:31:06.800Z,39.00
2023-05-21T07:32:06.729Z,36.31
2023-05-21T07:33:06.761Z,38.01
2023-05-21T07:34:06.698Z,36.44
2023-05-21T07:35:06.694Z,38.81
2023-05-21T07:36:06.672Z,39.19
2023-05-21T07:37:06.685Z,41.04
2023-05-21T07:38:06.753Z,37.17
2023-05-21T07:39:06.675Z,37.86
2023-05-21T07:40:06.806Z,37.70
2023-05-21T07:41:06.659Z,32.35
2023-05-21T07:42:06.633Z,35.78
2023-05-21T07:43:06.628Z,36.65
2023-05-21T07:44:06.629Z,35.10
2023-05-21T07:45:06.613Z,39.50
2023-05-21T07:46:06.641Z,39.33
2023-05-21T07:47:06.594Z,34.89
2023-05-21T07:48:06.650Z,40.23
2023-05-21T07:49:06.581Z,38.00
2023-05-21T07:50:06.583Z,37.95
2023-05-21T07:51:06.575Z,36.00
2023-05-21T07:52:06.567Z,34.79
2023-05-21T07:53:06.598Z,40.27
2023-05-21T07:54:06.547Z,34.03
2023-05-21T07:55:06.544Z,36.76
2023-05-21T07:56:06.565Z,40.92
2023-05-21T07:57:06.548Z,37.44
2023-05-21T07:58:06.525Z,39.82
2023-05-21T07:59:06.522Z,32.85
2023-05-21T08:00:06.532Z,32.40
2023-05-21T08:01:06.493Z,38.33
2023-05-21T08:02:06.481Z,36.54
2023-05-21T08:03:06.535Z,34.37
2023-05-21T08:04:06.751Z,36.41
2023-05-21T08:05:06.585Z,30.99
2023-05-21T08:06:06.454Z,33.86
2023-05-21T08:07:06.463Z,37.03
2023-05-21T08:08:06.461Z,34.79
2023-05-21T08:09:06.448Z,39.69
2023-05-21T08:10:06.443Z,35.04
2023-05-21T08:11:06.437Z,32.97
2023-05-21T08:12:06.444Z,40.56
2023-05-21T08:13:06.411Z,35.51
2023-05-21T08:14:06.401Z,31.76
2023-05-21T08:15:06.389Z,35.05
2023-05-21T08:16:06.418Z,37.08
2023-05-21T08:17:06.385Z,38.85
2023-05-21T08:18:06.454Z,39.58
2023-05-21T08:19:06.433Z,31.59
2023-05-21T08:20:06.369Z,35.46
2023-05-21T08:21:06.390Z,35.71
2023-05-21T08:22:06.343Z,38.65
2023-05-21T08:23:06.332Z,36.77
2023-05-21T08:24:06.327Z,33.33
2023-05-21T08:25:06.326Z,39.91
2023-05-21T08:26:06.325Z,30.97
2023-05-21T08:28:05.324Z,34.86
2023-05-21T08:29:06.297Z,35.37
2023-05-21T08:30:06.282Z,36.14
2023-05-21T08:31:06.282Z,39.50
2023-05-21T08:32:07.229Z,39.61
2023-05-21T08:33:06.347Z,36.90
2023-05-21T08:34:06.266Z,35.39
2023-05-21T08:35:06.257Z,33.26
2023-05-21T08:36:06.265Z,39.79
2023-05-21T08:37:06.236Z,38.74
2023-05-21T08:38:06.241Z,35.82
2023-05-21T08:39:06.221Z,39.75
2023-05-21T08:40:06.217Z,32.85
2023-05-21T08:41:06.215Z,29.38
2023-05-21T08:42:06.208Z,38.85
2023-05-21T08:43:06.222Z,30.65
2023-05-21T08:44:06.220Z,35.47
2023-05-21T08:45:06.193Z,40.71
2023-05-21T08:46:06.235Z,32.75
2023-05-21T08:47:06.170Z,34.43
2023-05-21T08:48:06.334Z,35.09
2023-05-21T08:49:06.186Z,41.70
2023-05-21T08:50:06.157Z,32.06
2023-05-21T08:51:06.173Z,40.49
2023-05-21T08:52:06.139Z,34.77
2023-05-21T08:53:15.880Z,33.75
2023-05-21T08:54:06.124Z,34.20
2023-05-21T08:55:06.127Z,35.74
2023-05-21T08:56:06.109Z,36.05
2023-05-21T08:57:06.125Z,35.17
2023-05-21T08:58:06.095Z,38.87
2023-05-21T08:59:06.082Z,36.58
2023-05-21T09:00:06.095Z,40.48
2023-05-21T09:01:06.099Z,36.39
2023-05-21T09:02:06.069Z,31.17
2023-05-21T09:03:06.199Z,41.77
2023-05-21T09:04:19.709Z,34.97
2023-05-21T09:05:06.044Z,35.51
2023-05-21T09:06:06.035Z,37.32
2023-05-21T09:07:06.027Z,38.98
2023-05-21T09:08:06.023Z,42.30
2023-05-21T09:09:06.054Z,38.07
2023-05-21T09:10:06.018Z,39.15
2023-05-21T09:11:06.009Z,34.28
2023-05-21T09:12:05.997Z,40.12
2023-05-21T09:13:05.998Z,44.53
2023-05-21T09:14:05.989Z,38.83
2023-05-21T09:15:05.977Z,41.47
2023-05-21T09:16:06.005Z,40.60
2023-05-21T09:17:06.104Z,39.61
2023-05-21T09:18:05.987Z,39.43
2023-05-21T09:19:05.993Z,43.81
2023-05-21T09:20:05.946Z,44.78
2023-05-21T09:21:05.946Z,35.80
2023-05-21T09:22:05.950Z,38.09
2023-05-21T09:23:05.927Z,40.86
2023-05-21T09:24:05.912Z,32.18
2023-05-21T09:25:05.900Z,45.65
2023-05-21T09:26:05.899Z,35.83
2023-05-21T09:27:05.895Z,33.34
2023-05-21T09:28:05.897Z,43.48
2023-05-21T09:29:05.880Z,37.44
2023-05-21T09:30:05.869Z,43.95
2023-05-21T09:31:05.886Z,40.89
2023-05-21T09:32:05.882Z,43.12
2023-05-21T09:33:05.902Z,42.88
2023-05-21T09:34:05.944Z,44.09
2023-05-21T09:35:06.007Z,41.81
2023-05-21T09:36:06.095Z,39.70
2023-05-21T09:37:08.510Z,43.53
2023-05-21T09:38:06.152Z,43.91
2023-05-21T09:39:06.113Z,44.00
2023-05-21T09:40:06.106Z,41.63
2023-05-21T09:41:06.124Z,44.84
2023-05-21T09:42:06.099Z,43.30
2023-05-21T09:43:06.118Z,44.24
2023-05-21T09:44:06.097Z,41.64
2023-05-21T09:45:06.144Z,41.17
2023-05-21T09:46:06.121Z,45.00
2023-05-21T09:47:06.074Z,43.03
2023-05-21T09:48:06.184Z,46.61
2023-05-21T09:49:06.098Z,43.91
2023-05-21T09:50:06.065Z,49.78
2023-05-21T09:51:06.027Z,46.50
2023-05-21T09:52:06.020Z,42.67
2023-05-21T09:53:06.032Z,43.94
2023-05-21T09:54:06.033Z,45.59
2023-05-21T09:55:06.009Z,47.95
2023-05-21T09:56:05.998Z,48.09
2023-05-21T09:57:06.019Z,39.39
2023-05-21T09:58:05.990Z,43.49
2023-05-21T09:59:05.977Z,44.53
2023-05-21T10:00:05.978Z,50.30
2023-05-21T10:01:05.967Z,40.40
2023-05-21T10:02:06.121Z,49.39
2023-05-21T10:03:06.182Z,45.77
2023-05-21T10:04:06.156Z,51.45
2023-05-21T10:05:06.189Z,51.86
2023-05-21T10:06:06.236Z,42.85
2023-05-21T10:07:06.304Z,47.59
2023-05-21T10:08:06.341Z,41.39
2023-05-21T10:09:06.406Z,43.41
2023-05-21T10:10:06.463Z,47.64
2023-05-21T10:11:06.538Z,42.66
2023-05-21T10:12:06.592Z,47.65
2023-05-21T10:13:06.677Z,43.05
2023-05-21T10:14:06.722Z,46.87
2023-05-21T10:15:06.750Z,51.11
2023-05-21T10:16:06.865Z,44.54
2023-05-21T10:17:06.870Z,47.27
2023-05-21T10:18:06.965Z,43.39
2023-05-21T10:19:07.038Z,45.13
2023-05-21T10:20:07.075Z,45.00
2023-05-21T10:21:07.098Z,46.77
2023-05-21T10:22:07.150Z,48.53
2023-05-21T10:23:07.212Z,43.22
2023-05-21T10:24:07.646Z,38.43
2023-05-21T10:25:07.661Z,44.18
2023-05-21T10:26:07.696Z,38.67
2023-05-21T10:27:07.665Z,44.95
2023-05-21T10:28:07.651Z,40.56
2023-05-21T10:29:07.658Z,37.88
2023-05-21T10:30:07.648Z,45.44
2023-05-21T10:31:07.689Z,44.68
2023-05-21T10:32:07.802Z,46.76
2023-05-21T10:33:07.785Z,47.07
2023-05-21T10:34:07.812Z,47.87
2023-05-21T10:35:07.859Z,42.83
2023-05-21T10:36:07.942Z,44.84
2023-05-21T10:37:07.956Z,49.97
2023-05-21T10:38:08.025Z,44.17
2023-05-21T10:39:08.055Z,42.97
2023-05-21T10:40:08.105Z,49.85
2023-05-21T10:41:08.172Z,42.15
2023-05-21T10:42:08.587Z,43.83
2023-05-21T10:43:08.579Z,49.98
2023-05-21T10:44:08.590Z,47.53
2023-05-21T10:45:08.584Z,53.50
2023-05-21T10:46:08.611Z,49.33
2023-05-21T10:47:08.586Z,43.09
2023-05-21T10:48:08.624Z,50.95
2023-05-21T10:49:08.585Z,48.17
2023-05-21T10:50:08.642Z,46.10
2023-05-21T10:51:08.702Z,48.48
2023-05-21T10:52:08.776Z,48.37
2023-05-21T10:53:10.770Z,50.13
2023-05-21T10:54:08.787Z,47.77
2023-05-21T10:55:08.787Z,45.41
2023-05-21T10:56:08.770Z,47.42
2023-05-21T10:57:08.772Z,51.63
2023-05-21T10:58:08.756Z,50.93
2023-05-21T10:59:08.751Z,55.15
2023-05-21T11:00:08.745Z,49.07
2023-05-21T11:01:08.813Z,50.69
2023-05-21T11:02:08.831Z,48.24
2023-05-21T11:03:08.866Z,46.06
2023-05-21T11:04:08.738Z,47.01
2023-05-21T11:05:08.703Z,49.23
2023-05-21T11:06:08.710Z,47.31
2023-05-21T11:07:08.700Z,52.50
2023-05-21T11:08:08.718Z,46.26
2023-05-21T11:09:08.693Z,49.61
2023-05-21T11:10:08.679Z,46.90
2023-05-21T11:11:08.668Z,52.50
2023-05-21T11:12:08.660Z,47.75
2023-05-21T11:13:08.648Z,45.61
2023-05-21T11:14:08.650Z,45.14
2023-05-21T11:15:08.642Z,42.15
2023-05-21T11:16:08.665Z,40.82
2023-05-21T11:17:08.663Z,44.31
2023-05-21T11:18:08.682Z,51.97
2023-05-21T11:19:08.634Z,53.39
2023-05-21T11:20:08.594Z,48.07
2023-05-21T11:21:08.594Z,46.06
2023-05-21T11:22:08.625Z,53.13
2023-05-21T11:23:08.677Z,54.09
2023-05-21T11:24:08.897Z,51.13
2023-05-21T11:25:08.772Z,50.70
2023-05-21T11:26:08.812Z,49.89
2023-05-21T11:27:08.880Z,50.22
2023-05-21T11:28:08.898Z,49.46
2023-05-21T11:29:08.955Z,47.20
2023-05-21T11:30:09.021Z,51.14
2023-05-21T11:31:09.242Z,50.63
2023-05-21T11:32:09.085Z,50.00
2023-05-21T11:33:09.181Z,45.35
2023-05-21T11:34:09.187Z,50.85
2023-05-21T11:35:09.271Z,45.09
2023-05-21T11:36:09.258Z,45.56
2023-05-21T11:37:09.300Z,52.42
2023-05-21T11:38:09.348Z,48.97
2023-05-21T11:39:09.389Z,47.42
2023-05-21T11:40:09.447Z,55.75
2023-05-21T11:41:09.475Z,48.43
2023-05-21T11:42:09.528Z,53.98
2023-05-21T11:43:09.546Z,50.01
2023-05-21T11:44:09.591Z,51.42
2023-05-21T11:45:09.651Z,49.64
2023-05-21T11:46:09.709Z,52.98
2023-05-21T11:47:09.733Z,51.72
2023-05-21T11:48:09.817Z,51.41
2023-05-21T11:49:09.813Z,59.52
2023-05-21T11:50:09.880Z,58.87
2023-05-21T11:51:09.908Z,56.47
2023-05-21T11:52:09.945Z,57.95
2023-05-21T11:53:09.980Z,56.08
2023-05-21T11:54:10.037Z,52.35
2023-05-21T11:55:10.106Z,49.62
2023-05-21T11:56:10.209Z,50.41
2023-05-21T11:57:10.171Z,52.67
2023-05-21T11:58:10.213Z,50.52
2023-05-21T11:59:10.252Z,53.02
2023-05-21T12:00:10.301Z,55.21
2023-05-21T12:01:10.360Z,49.02
2023-05-21T12:02:10.394Z,55.33
2023-05-21T12:03:10.536Z,56.56
2023-05-21T12:04:10.589Z,57.19
2023-05-21T12:05:13.087Z,58.28
2023-05-21T12:06:10.577Z,58.45
2023-05-21T12:07:10.518Z,58.62
2023-05-21T12:08:10.508Z,57.07
2023-05-21T12:09:10.502Z,57.46
2023-05-21T12:10:10.497Z,54.13
2023-05-21T12:11:10.496Z,56.47
2023-05-21T12:12:10.521Z,55.16
2023-05-21T12:13:10.491Z,52.99
2023-05-21T12:14:10.557Z,54.23
2023-05-21T12:15:10.484Z,53.61
2023-05-21T12:16:10.527Z,54.77
2023-05-21T12:17:10.452Z,52.60
2023-05-21T12:18:10.447Z,55.43
2023-05-21T12:19:10.457Z,54.49
2023-05-21T12:20:10.437Z,58.94
2023-05-21T12:21:12.356Z,56.47
2023-05-21T12:22:10.405Z,58.24
2023-05-21T12:23:10.403Z,58.37
2023-05-21T12:24:10.398Z,54.79
2023-05-21T12:25:10.396Z,57.18
2023-05-21T12:26:10.398Z,53.30
2023-05-21T12:27:10.378Z,61.23
2023-05-21T12:28:10.392Z,55.96
2023-05-21T12:29:10.360Z,54.30
2023-05-21T12:30:10.356Z,59.96
2023-05-21T12:31:10.350Z,53.47
2023-05-21T12:32:10.435Z,52.45
2023-05-21T12:33:10.379Z,51.79
2023-05-21T12:34:10.323Z,56.36
2023-05-21T12:35:10.354Z,56.36
2023-05-21T12:36:10.312Z,58.35
2023-05-21T12:37:10.307Z,59.12
2023-05-21T12:38:10.304Z,55.67
2023-05-21T12:39:11.291Z,54.13
2023-05-21T12:40:10.286Z,58.42
2023-05-21T12:41:10.281Z,53.45
2023-05-21T12:42:10.268Z,61.13
2023-05-21T12:43:10.269Z,57.31
2023-05-21T12:44:10.282Z,57.67
2023-05-21T12:45:10.251Z,55.24
2023-05-21T12:46:10.279Z,55.10
2023-05-21T12:47:10.236Z,56.46
2023-05-21T12:48:10.303Z,56.44
2023-05-21T12:49:10.262Z,56.56
2023-05-21T12:50:10.397Z,56.86
2023-05-21T12:51:10.348Z,61.61
2023-05-21T12:52:10.379Z,63.40
2023-05-21T12:53:10.414Z,62.25